CheckWX is a tool to help pilots better visualize weather data.  It is not intended as a substitute for an official pre-flight weather briefing.

17:44:12 UTC

KTYS METAR
Mc Ghee Tyson Airport
Knoxville, Tennessee, USA
Current

51 mins ago

KTYS 131653Z 00000KT 10SM FEW020 M01/M06 A3034 RMK AO2 SLP285 T10061061
Observed
Nov-13 @ 16:53 UTC
Visibility
10 SM
Flight Rules
VFR
Cloud Levels
  • Few at 2,000' AGL
Temperature
-1°C / 30°F
Dewpoint
-6°C / 21°F
Humidity
69%
Altimeter
30.34" Hg
Pressure
1027.42 hPa
Previous

2 hours ago

KTYS 131553Z 00000KT 10SM FEW016 M03/M07 A3035 RMK AO2 SLP289 T10281072
Observed
Nov-13 @ 15:53 UTC
Visibility
10 SM
Flight Rules
VFR
Cloud Levels
  • Few at 1,600' AGL
Temperature
-3°C / 27°F
Dewpoint
-7°C / 19°F
Humidity
74%
Altimeter
30.35" Hg
Pressure
1027.82 hPa
Previous

3 hours ago

KTYS 131453Z 07006KT 10SM FEW026 FEW250 M04/M08 A3037 RMK AO2 SLP294 T10441083 51009
Observed
Nov-13 @ 14:53 UTC
Wind
  • 070° at 6 KTS
Visibility
10 SM
Flight Rules
VFR
Cloud Levels
  • Few at 2,600' AGL
  • Few at 25,000' AGL
Temperature
-4°C / 25°F
Dewpoint
-8°C / 18°F
Humidity
74%
Altimeter
30.37" Hg
Pressure
1028.42 hPa